sensor_id;sensor_type;location;lat;lon;timestamp;pressure;altitude;pressure_sealevel;temperature;humidity
23241;BME280;11789;53.482;9.862;2023-03-16T00:01:10;102098.56;;;-0.53;100.00
23241;BME280;11789;53.482;9.862;2023-03-16T00:03:38;102093.59;;;-0.52;100.00
23241;BME280;11789;53.482;9.862;2023-03-16T00:06:16;102091.16;;;-0.50;100.00
23241;BME280;11789;53.482;9.862;2023-03-16T00:08:41;102103.06;;;-0.49;100.00
23241;BME280;11789;53.482;9.862;2023-03-16T00:11:07;102098.66;;;-0.52;100.00
23241;BME280;11789;53.482;9.862;2023-03-16T00:13:33;102099.16;;;-0.57;100.00
23241;BME280;11789;53.482;9.862;2023-03-16T00:16:00;102101.41;;;-0.62;100.00
23241;BME280;11789;53.482;9.862;2023-03-16T00:18:29;102106.38;;;-0.63;100.00
23241;BME280;11789;53.482;9.862;2023-03-16T00:21:00;102109.22;;;-0.72;100.00
23241;BME280;11789;53.482;9.862;2023-03-16T00:23:28;102106.50;;;-0.75;100.00
23241;BME280;11789;53.482;9.862;2023-03-16T00:25:58;102105.78;;;-0.72;100.00
23241;BME280;11789;53.482;9.862;2023-03-16T00:28:25;102105.13;;;-0.70;100.00
23241;BME280;11789;53.482;9.862;2023-03-16T00:30:51;102106.97;;;-0.67;100.00
23241;BME280;11789;53.482;9.862;2023-03-16T00:33:17;102108.72;;;-0.66;100.00
23241;BME280;11789;53.482;9.862;2023-03-16T00:35:47;102107.09;;;-0.66;100.00
23241;BME280;11789;53.482;9.862;2023-03-16T00:38:16;102111.69;;;-0.60;100.00
23241;BME280;11789;53.482;9.862;2023-03-16T00:40:42;102109.44;;;-0.56;100.00
23241;BME280;11789;53.482;9.862;2023-03-16T00:43:08;102110.50;;;-0.52;100.00
23241;BME280;11789;53.482;9.862;2023-03-16T00:45:33;102108.94;;;-0.50;100.00
23241;BME280;11789;53.482;9.862;2023-03-16T00:47:59;102107.66;;;-0.43;100.00
23241;BME280;11789;53.482;9.862;2023-03-16T00:50:26;102106.28;;;-0.38;100.00
23241;BME280;11789;53.482;9.862;2023-03-16T00:52:51;102106.09;;;-0.41;100.00
23241;BME280;11789;53.482;9.862;2023-03-16T00:55:19;102107.56;;;-0.45;100.00
23241;BME280;11789;53.482;9.862;2023-03-16T00:57:44;102101.72;;;-0.44;100.00
23241;BME280;11789;53.482;9.862;2023-03-16T01:00:11;102099.75;;;-0.48;100.00
23241;BME280;11789;53.482;9.862;2023-03-16T01:02:37;102103.94;;;-0.48;100.00
23241;BME280;11789;53.482;9.862;2023-03-16T01:05:03;102096.12;;;-0.52;100.00
23241;BME280;11789;53.482;9.862;2023-03-16T01:07:29;102101.53;;;-0.60;100.00
23241;BME280;11789;53.482;9.862;2023-03-16T01:09:55;102094.94;;;-0.57;100.00
23241;BME280;11789;53.482;9.862;2023-03-16T01:12:21;102092.62;;;-0.54;100.00
23241;BME280;11789;53.482;9.862;2023-03-16T01:14:47;102088.03;;;-0.59;100.00
23241;BME280;11789;53.482;9.862;2023-03-16T01:17:13;102085.97;;;-0.65;100.00
23241;BME280;11789;53.482;9.862;2023-03-16T01:19:39;102089.41;;;-0.64;100.00
23241;BME280;11789;53.482;9.862;2023-03-16T01:22:07;102083.31;;;-0.66;100.00
23241;BME280;11789;53.482;9.862;2023-03-16T01:24:34;102087.25;;;-0.85;100.00
23241;BME280;11789;53.482;9.862;2023-03-16T01:27:00;102084.88;;;-0.95;100.00
23241;BME280;11789;53.482;9.862;2023-03-16T01:29:25;102089.34;;;-1.04;100.00
23241;BME280;11789;53.482;9.862;2023-03-16T01:31:51;102088.00;;;-0.99;100.00
23241;BME280;11789;53.482;9.862;2023-03-16T01:34:17;102084.06;;;-1.07;100.00
23241;BME280;11789;53.482;9.862;2023-03-16T01:36:46;102088.75;;;-1.13;100.00
23241;BME280;11789;53.482;9.862;2023-03-16T01:39:13;102083.47;;;-1.16;100.00
23241;BME280;11789;53.482;9.862;2023-03-16T01:41:39;102086.09;;;-1.15;100.00
23241;BME280;11789;53.482;9.862;2023-03-16T01:44:09;102085.31;;;-1.14;100.00
23241;BME280;11789;53.482;9.862;2023-03-16T01:46:35;102078.59;;;-1.13;100.00
23241;BME280;11789;53.482;9.862;2023-03-16T01:49:21;102088.94;;;-1.10;100.00
23241;BME280;11789;53.482;9.862;2023-03-16T01:51:59;102087.03;;;-1.01;100.00
23241;BME280;11789;53.482;9.862;2023-03-16T01:54:49;102086.06;;;-0.90;100.00
23241;BME280;11789;53.482;9.862;2023-03-16T01:57:21;102085.47;;;-0.86;100.00
23241;BME280;11789;53.482;9.862;2023-03-16T01:59:58;102084.13;;;-0.81;100.00
23241;BME280;11789;53.482;9.862;2023-03-16T02:02:46;102089.00;;;-0.84;100.00
23241;BME280;11789;53.482;9.862;2023-03-16T02:05:19;102081.94;;;-0.88;100.00
23241;BME280;11789;53.482;9.862;2023-03-16T02:07:48;102077.25;;;-0.95;100.00
23241;BME280;11789;53.482;9.862;2023-03-16T02:10:17;102084.75;;;-0.96;100.00
23241;BME280;11789;53.482;9.862;2023-03-16T02:12:43;102080.28;;;-1.00;100.00
23241;BME280;11789;53.482;9.862;2023-03-16T02:15:10;102071.59;;;-1.04;100.00
23241;BME280;11789;53.482;9.862;2023-03-16T02:17:36;102077.31;;;-1.07;100.00
23241;BME280;11789;53.482;9.862;2023-03-16T02:20:27;102063.75;;;-1.07;100.00
23241;BME280;11789;53.482;9.862;2023-03-16T02:22:57;102065.44;;;-0.94;100.00
23241;BME280;11789;53.482;9.862;2023-03-16T02:25:25;102058.91;;;-1.04;100.00
23241;BME280;11789;53.482;9.862;2023-03-16T02:28:04;102058.91;;;-1.04;100.00
23241;BME280;11789;53.482;9.862;2023-03-16T02:30:33;102054.69;;;-1.03;100.00
23241;BME280;11789;53.482;9.862;2023-03-16T02:32:59;102051.06;;;-1.07;100.00
23241;BME280;11789;53.482;9.862;2023-03-16T02:35:24;102048.53;;;-1.07;100.00
23241;BME280;11789;53.482;9.862;2023-03-16T02:37:50;102047.66;;;-1.08;100.00
23241;BME280;11789;53.482;9.862;2023-03-16T02:40:24;102055.47;;;-1.05;100.00
23241;BME280;11789;53.482;9.862;2023-03-16T02:43:12;102056.53;;;-1.14;100.00
23241;BME280;11789;53.482;9.862;2023-03-16T02:45:45;102057.09;;;-1.18;100.00
23241;BME280;11789;53.482;9.862;2023-03-16T02:48:17;102053.78;;;-1.17;100.00
23241;BME280;11789;53.482;9.862;2023-03-16T02:50:49;102054.78;;;-1.15;100.00
23241;BME280;11789;53.482;9.862;2023-03-16T02:53:16;102054.97;;;-1.12;100.00
23241;BME280;11789;53.482;9.862;2023-03-16T02:55:42;102057.72;;;-1.09;100.00
23241;BME280;11789;53.482;9.862;2023-03-16T02:58:09;102058.50;;;-1.10;100.00
23241;BME280;11789;53.482;9.862;2023-03-16T03:00:36;102068.25;;;-1.16;100.00
23241;BME280;11789;53.482;9.862;2023-03-16T03:03:02;102066.69;;;-1.14;100.00
23241;BME280;11789;53.482;9.862;2023-03-16T03:05:28;102060.44;;;-1.19;100.00
23241;BME280;11789;53.482;9.862;2023-03-16T03:07:53;102055.84;;;-1.25;100.00
23241;BME280;11789;53.482;9.862;2023-03-16T03:10:19;102057.50;;;-1.25;100.00
23241;BME280;11789;53.482;9.862;2023-03-16T03:12:44;102060.13;;;-1.24;100.00
23241;BME280;11789;53.482;9.862;2023-03-16T03:15:14;102064.72;;;-1.18;100.00
23241;BME280;11789;53.482;9.862;2023-03-16T03:17:39;102067.47;;;-1.15;100.00
23241;BME280;11789;53.482;9.862;2023-03-16T03:20:08;102071.75;;;-1.14;100.00
23241;BME280;11789;53.482;9.862;2023-03-16T03:22:46;102070.19;;;-1.12;100.00
23241;BME280;11789;53.482;9.862;2023-03-16T03:25:14;102069.44;;;-1.11;100.00
23241;BME280;11789;53.482;9.862;2023-03-16T03:27:40;102066.12;;;-1.10;100.00
23241;BME280;11789;53.482;9.862;2023-03-16T03:30:10;102059.38;;;-1.10;100.00
23241;BME280;11789;53.482;9.862;2023-03-16T03:32:37;102060.72;;;-1.15;100.00
23241;BME280;11789;53.482;9.862;2023-03-16T03:35:04;102058.56;;;-1.22;100.00
23241;BME280;11789;53.482;9.862;2023-03-16T03:37:29;102062.00;;;-1.21;100.00
23241;BME280;11789;53.482;9.862;2023-03-16T03:39:55;102062.75;;;-1.22;100.00
23241;BME280;11789;53.482;9.862;2023-03-16T03:42:20;102057.66;;;-1.36;100.00
23241;BME280;11789;53.482;9.862;2023-03-16T03:44:49;102062.50;;;-1.52;100.00
23241;BME280;11789;53.482;9.862;2023-03-16T03:47:15;102060.16;;;-1.49;100.00
23241;BME280;11789;53.482;9.862;2023-03-16T03:49:41;102055.16;;;-1.47;100.00
23241;BME280;11789;53.482;9.862;2023-03-16T03:52:06;102058.62;;;-1.47;100.00
23241;BME280;11789;53.482;9.862;2023-03-16T03:54:32;102047.28;;;-1.52;100.00
23241;BME280;11789;53.482;9.862;2023-03-16T03:56:57;102062.50;;;-1.52;100.00
23241;BME280;11789;53.482;9.862;2023-03-16T03:59:23;102068.44;;;-1.51;100.00
23241;BME280;11789;53.482;9.862;2023-03-16T04:01:48;102066.47;;;-1.55;100.00
23241;BME280;11789;53.482;9.862;2023-03-16T04:04:14;102061.00;;;-1.62;100.00
23241;BME280;11789;53.482;9.862;2023-03-16T04:06:40;102061.59;;;-1.52;100.00
23241;BME280;11789;53.482;9.862;2023-03-16T04:09:06;102063.78;;;-1.45;100.00
23241;BME280;11789;53.482;9.862;2023-03-16T04:11:32;102057.34;;;-1.40;100.00
23241;BME280;11789;53.482;9.862;2023-03-16T04:13:58;102051.59;;;-1.38;100.00
23241;BME280;11789;53.482;9.862;2023-03-16T04:16:24;102055.12;;;-1.36;100.00
23241;BME280;11789;53.482;9.862;2023-03-16T04:18:53;102045.62;;;-1.38;100.00
23241;BME280;11789;53.482;9.862;2023-03-16T04:21:20;102040.22;;;-1.31;100.00
23241;BME280;11789;53.482;9.862;2023-03-16T04:23:46;102043.34;;;-1.22;100.00
23241;BME280;11789;53.482;9.862;2023-03-16T04:26:11;102040.78;;;-1.22;100.00
23241;BME280;11789;53.482;9.862;2023-03-16T04:28:37;102045.00;;;-1.22;100.00
23241;BME280;11789;53.482;9.862;2023-03-16T04:31:08;102050.84;;;-1.23;100.00
23241;BME280;11789;53.482;9.862;2023-03-16T04:33:36;102043.31;;;-1.35;100.00
23241;BME280;11789;53.482;9.862;2023-03-16T04:36:03;102048.75;;;-1.42;100.00
23241;BME280;11789;53.482;9.862;2023-03-16T04:38:31;102045.94;;;-1.47;100.00
23241;BME280;11789;53.482;9.862;2023-03-16T04:41:00;102043.19;;;-1.50;100.00
23241;BME280;11789;53.482;9.862;2023-03-16T04:43:27;102046.97;;;-1.57;100.00
23241;BME280;11789;53.482;9.862;2023-03-16T04:45:52;102049.59;;;-1.55;100.00
23241;BME280;11789;53.482;9.862;2023-03-16T04:48:18;102045.94;;;-1.47;100.00
23241;BME280;11789;53.482;9.862;2023-03-16T04:50:44;102045.72;;;-1.50;100.00
23241;BME280;11789;53.482;9.862;2023-03-16T04:53:09;102039.16;;;-1.60;100.00
23241;BME280;11789;53.482;9.862;2023-03-16T04:55:35;102042.94;;;-1.66;100.00
23241;BME280;11789;53.482;9.862;2023-03-16T04:58:00;102046.69;;;-1.73;100.00
23241;BME280;11789;53.482;9.862;2023-03-16T05:00:26;102046.59;;;-1.74;100.00
23241;BME280;11789;53.482;9.862;2023-03-16T05:02:52;102043.84;;;-1.77;100.00
23241;BME280;11789;53.482;9.862;2023-03-16T05:05:17;102028.62;;;-1.77;100.00
23241;BME280;11789;53.482;9.862;2023-03-16T05:07:43;102031.94;;;-1.78;100.00
23241;BME280;11789;53.482;9.862;2023-03-16T05:10:12;102026.87;;;-1.78;100.00
23241;BME280;11789;53.482;9.862;2023-03-16T05:12:37;102020.84;;;-1.80;100.00
23241;BME280;11789;53.482;9.862;2023-03-16T05:15:04;102024.91;;;-1.83;100.00
23241;BME280;11789;53.482;9.862;2023-03-16T05:17:29;102014.59;;;-1.86;100.00
23241;BME280;11789;53.482;9.862;2023-03-16T05:19:55;102032.16;;;-1.75;100.00
23241;BME280;11789;53.482;9.862;2023-03-16T05:22:20;102039.72;;;-1.64;100.00
23241;BME280;11789;53.482;9.862;2023-03-16T05:24:45;102036.63;;;-1.60;100.00
23241;BME280;11789;53.482;9.862;2023-03-16T05:27:11;102035.72;;;-1.60;100.00
23241;BME280;11789;53.482;9.862;2023-03-16T05:29:36;102036.31;;;-1.64;100.00
23241;BME280;11789;53.482;9.862;2023-03-16T05:32:02;102023.31;;;-1.69;100.00
23241;BME280;11789;53.482;9.862;2023-03-16T05:34:28;102018.94;;;-1.71;100.00
23241;BME280;11789;53.482;9.862;2023-03-16T05:36:53;102033.13;;;-1.73;100.00
23241;BME280;11789;53.482;9.862;2023-03-16T05:39:19;102028.94;;;-1.73;100.00
23241;BME280;11789;53.482;9.862;2023-03-16T05:41:44;102036.00;;;-1.69;100.00
23241;BME280;11789;53.482;9.862;2023-03-16T05:44:10;102035.22;;;-1.68;100.00
23241;BME280;11789;53.482;9.862;2023-03-16T05:46:35;102036.53;;;-1.61;100.00
23241;BME280;11789;53.482;9.862;2023-03-16T05:49:02;102041.78;;;-1.58;100.00
23241;BME280;11789;53.482;9.862;2023-03-16T05:51:28;102049.91;;;-1.50;100.00
23241;BME280;11789;53.482;9.862;2023-03-16T05:53:54;102047.88;;;-1.43;100.00
23241;BME280;11789;53.482;9.862;2023-03-16T05:56:24;102040.00;;;-1.34;100.00
23241;BME280;11789;53.482;9.862;2023-03-16T05:58:51;102042.06;;;-1.28;100.00
23241;BME280;11789;53.482;9.862;2023-03-16T06:01:17;102045.12;;;-1.21;100.00
23241;BME280;11789;53.482;9.862;2023-03-16T06:03:48;102040.44;;;-1.15;100.00
23241;BME280;11789;53.482;9.862;2023-03-16T06:06:15;102038.06;;;-1.12;100.00
23241;BME280;11789;53.482;9.862;2023-03-16T06:08:41;102038.09;;;-0.98;100.00
23241;BME280;11789;53.482;9.862;2023-03-16T06:11:07;102042.31;;;-0.86;99.26
23241;BME280;11789;53.482;9.862;2023-03-16T06:13:33;102036.94;;;-0.77;98.15
23241;BME280;11789;53.482;9.862;2023-03-16T06:15:59;102046.91;;;-0.67;97.12
23241;BME280;11789;53.482;9.862;2023-03-16T06:18:24;102050.44;;;-0.65;96.86
23241;BME280;11789;53.482;9.862;2023-03-16T06:20:50;102054.72;;;-0.77;97.67
23241;BME280;11789;53.482;9.862;2023-03-16T06:23:15;102055.03;;;-0.86;98.84
23241;BME280;11789;53.482;9.862;2023-03-16T06:25:40;102056.38;;;-0.91;99.66
23241;BME280;11789;53.482;9.862;2023-03-16T06:28:06;102044.06;;;-0.98;100.00
23241;BME280;11789;53.482;9.862;2023-03-16T06:30:32;102053.53;;;-0.95;100.00
23241;BME280;11789;53.482;9.862;2023-03-16T06:32:57;102054.41;;;-0.95;100.00
23241;BME280;11789;53.482;9.862;2023-03-16T06:35:25;102064.88;;;-0.90;100.00
23241;BME280;11789;53.482;9.862;2023-03-16T06:37:50;102059.88;;;-0.89;100.00
23241;BME280;11789;53.482;9.862;2023-03-16T06:40:16;102064.31;;;-0.86;100.00
23241;BME280;11789;53.482;9.862;2023-03-16T06:42:42;102062.72;;;-0.84;100.00
23241;BME280;11789;53.482;9.862;2023-03-16T06:45:09;102062.16;;;-0.80;100.00
23241;BME280;11789;53.482;9.862;2023-03-16T06:47:35;102063.81;;;-0.81;100.00
23241;BME280;11789;53.482;9.862;2023-03-16T06:50:00;102071.44;;;-0.81;100.00
23241;BME280;11789;53.482;9.862;2023-03-16T06:52:26;102073.34;;;-0.76;100.00
23241;BME280;11789;53.482;9.862;2023-03-16T06:54:51;102076.09;;;-0.73;99.63
23241;BME280;11789;53.482;9.862;2023-03-16T06:57:17;102081.41;;;-0.70;99.40
23241;BME280;11789;53.482;9.862;2023-03-16T06:59:42;102083.31;;;-0.66;99.13
23241;BME280;11789;53.482;9.862;2023-03-16T07:02:11;102079.41;;;-0.61;98.47
23241;BME280;11789;53.482;9.862;2023-03-16T07:04:39;102083.34;;;-0.53;98.04
23241;BME280;11789;53.482;9.862;2023-03-16T07:07:04;102079.62;;;-0.45;97.73
23241;BME280;11789;53.482;9.862;2023-03-16T07:09:30;102073.34;;;-0.37;97.42
23241;BME280;11789;53.482;9.862;2023-03-16T07:11:56;102079.22;;;-0.24;96.59
23241;BME280;11789;53.482;9.862;2023-03-16T07:14:21;102079.19;;;-0.11;95.97
23241;BME280;11789;53.482;9.862;2023-03-16T07:16:49;102077.78;;;0.07;94.86
23241;BME280;11789;53.482;9.862;2023-03-16T07:19:14;102093.38;;;0.27;94.03
23241;BME280;11789;53.482;9.862;2023-03-16T07:21:40;102090.00;;;0.41;92.71
23241;BME280;11789;53.482;9.862;2023-03-16T07:24:07;102098.34;;;0.53;90.79
23241;BME280;11789;53.482;9.862;2023-03-16T07:26:34;102085.56;;;0.66;90.64
23241;BME280;11789;53.482;9.862;2023-03-16T07:28:59;102092.25;;;0.79;89.27
23241;BME280;11789;53.482;9.862;2023-03-16T07:31:25;102090.44;;;0.91;88.08
23241;BME280;11789;53.482;9.862;2023-03-16T07:33:50;102092.00;;;1.04;87.25
23241;BME280;11789;53.482;9.862;2023-03-16T07:36:16;102092.00;;;1.19;86.75
23241;BME280;11789;53.482;9.862;2023-03-16T07:38:42;102088.72;;;1.36;86.10
23241;BME280;11789;53.482;9.862;2023-03-16T07:41:07;102085.22;;;1.49;84.30
23241;BME280;11789;53.482;9.862;2023-03-16T07:43:33;102085.59;;;1.71;83.30
23241;BME280;11789;53.482;9.862;2023-03-16T07:45:59;102085.78;;;1.91;80.28
23241;BME280;11789;53.482;9.862;2023-03-16T07:48:25;102078.97;;;2.22;79.05
23241;BME280;11789;53.482;9.862;2023-03-16T07:50:51;102077.69;;;2.47;76.92
23241;BME280;11789;53.482;9.862;2023-03-16T07:53:16;102075.69;;;2.57;74.06
23241;BME280;11789;53.482;9.862;2023-03-16T07:55:43;102077.19;;;2.70;73.01
23241;BME280;11789;53.482;9.862;2023-03-16T07:58:09;102079.22;;;2.94;73.18
23241;BME280;11789;53.482;9.862;2023-03-16T08:00:35;102079.59;;;3.19;72.09
23241;BME280;11789;53.482;9.862;2023-03-16T08:03:01;102077.31;;;3.42;71.42
23241;BME280;11789;53.482;9.862;2023-03-16T08:05:27;102074.53;;;3.55;70.79
23241;BME280;11789;53.482;9.862;2023-03-16T08:07:53;102070.19;;;3.72;70.93
23241;BME280;11789;53.482;9.862;2023-03-16T08:10:20;102071.28;;;3.77;68.40
23241;BME280;11789;53.482;9.862;2023-03-16T08:12:46;102064.91;;;3.86;67.60
23241;BME280;11789;53.482;9.862;2023-03-16T08:15:12;102073.06;;;3.97;67.98
23241;BME280;11789;53.482;9.862;2023-03-16T08:17:37;102079.94;;;3.98;66.52
23241;BME280;11789;53.482;9.862;2023-03-16T08:20:06;102073.28;;;4.02;67.10
23241;BME280;11789;53.482;9.862;2023-03-16T08:22:35;102078.81;;;4.11;67.41
23241;BME280;11789;53.482;9.862;2023-03-16T08:25:02;102068.03;;;4.18;66.14
23241;BME280;11789;53.482;9.862;2023-03-16T08:27:28;102072.88;;;4.51;65.58
23241;BME280;11789;53.482;9.862;2023-03-16T08:29:54;102065.38;;;5.16;63.03
23241;BME280;11789;53.482;9.862;2023-03-16T08:32:20;102060.41;;;6.32;60.68
23241;BME280;11789;53.482;9.862;2023-03-16T08:34:45;102053.19;;;5.53;60.34
23241;BME280;11789;53.482;9.862;2023-03-16T08:37:12;102061.19;;;5.62;60.97
23241;BME280;11789;53.482;9.862;2023-03-16T08:39:42;102041.22;;;6.70;57.67
23241;BME280;11789;53.482;9.862;2023-03-16T08:42:11;102054.16;;;6.23;57.56
23241;BME280;11789;53.482;9.862;2023-03-16T08:44:39;102058.22;;;5.94;59.56
23241;BME280;11789;53.482;9.862;2023-03-16T08:47:05;102050.63;;;5.53;60.14
23241;BME280;11789;53.482;9.862;2023-03-16T08:49:31;102049.97;;;5.81;59.73
23241;BME280;11789;53.482;9.862;2023-03-16T08:51:57;102051.06;;;5.65;58.83
23241;BME280;11789;53.482;9.862;2023-03-16T08:54:24;102053.22;;;5.54;60.93
23241;BME280;11789;53.482;9.862;2023-03-16T08:56:50;102060.06;;;5.54;60.03
23241;BME280;11789;53.482;9.862;2023-03-16T08:59:16;102049.84;;;5.55;60.71
23241;BME280;11789;53.482;9.862;2023-03-16T09:01:41;102055.16;;;5.60;60.77
23241;BME280;11789;53.482;9.862;2023-03-16T09:04:07;102055.16;;;5.60;61.97
23241;BME280;11789;53.482;9.862;2023-03-16T09:06:32;102046.75;;;5.64;60.46
23241;BME280;11789;53.482;9.862;2023-03-16T09:08:57;102048.47;;;5.63;60.05
23241;BME280;11789;53.482;9.862;2023-03-16T09:11:24;102036.84;;;5.73;60.68
23241;BME280;11789;53.482;9.862;2023-03-16T09:13:53;102030.94;;;5.76;59.41
23241;BME280;11789;53.482;9.862;2023-03-16T09:16:19;102032.66;;;5.75;58.68
23241;BME280;11789;53.482;9.862;2023-03-16T09:18:45;102040.03;;;5.90;59.20
23241;BME280;11789;53.482;9.862;2023-03-16T09:21:11;102036.97;;;5.98;57.95
23241;BME280;11789;53.482;9.862;2023-03-16T09:23:38;102022.72;;;6.07;57.75
23241;BME280;11789;53.482;9.862;2023-03-16T09:26:06;102030.72;;;6.14;57.02
23241;BME280;11789;53.482;9.862;2023-03-16T09:28:33;102033.63;;;6.23;56.80
23241;BME280;11789;53.482;9.862;2023-03-16T09:31:00;102021.41;;;6.42;56.11
23241;BME280;11789;53.482;9.862;2023-03-16T09:33:27;102019.50;;;6.62;55.43
23241;BME280;11789;53.482;9.862;2023-03-16T09:35:54;102021.06;;;6.82;54.85
23241;BME280;11789;53.482;9.862;2023-03-16T09:38:22;102030.25;;;7.01;53.82
23241;BME280;11789;53.482;9.862;2023-03-16T09:41:02;102025.16;;;7.02;52.62
23241;BME280;11789;53.482;9.862;2023-03-16T09:43:55;102017.84;;;7.15;53.43
23241;BME280;11789;53.482;9.862;2023-03-16T09:46:28;102025.59;;;7.16;51.88
23241;BME280;11789;53.482;9.862;2023-03-16T09:48:57;102016.81;;;7.10;52.84
23241;BME280;11789;53.482;9.862;2023-03-16T09:51:35;102014.00;;;7.02;50.77
23241;BME280;11789;53.482;9.862;2023-03-16T09:54:07;102009.56;;;6.98;48.83
23241;BME280;11789;53.482;9.862;2023-03-16T09:56:41;102019.56;;;6.89;48.81
23241;BME280;11789;53.482;9.862;2023-03-16T09:59:12;102012.72;;;6.89;49.98
23241;BME280;11789;53.482;9.862;2023-03-16T10:01:59;102010.28;;;6.94;49.05
23241;BME280;11789;53.482;9.862;2023-03-16T10:07:03;102006.59;;;7.11;50.17
23241;BME280;11789;53.482;9.862;2023-03-16T10:09:43;102003.44;;;7.20;49.14
23241;BME280;11789;53.482;9.862;2023-03-16T10:12:12;102015.06;;;7.36;49.14
23241;BME280;11789;53.482;9.862;2023-03-16T10:14:47;102001.81;;;7.23;48.06
23241;BME280;11789;53.482;9.862;2023-03-16T10:20:19;101995.28;;;7.06;47.96
23241;BME280;11789;53.482;9.862;2023-03-16T10:22:48;101989.94;;;7.00;46.67
23241;BME280;11789;53.482;9.862;2023-03-16T10:27:42;101998.94;;;7.14;47.72
23241;BME280;11789;53.482;9.862;2023-03-16T10:32:44;102005.91;;;7.17;45.97
23241;BME280;11789;53.482;9.862;2023-03-16T10:37:56;101995.34;;;7.09;44.79
23241;BME280;11789;53.482;9.862;2023-03-16T10:40:23;101988.63;;;7.13;45.46
23241;BME280;11789;53.482;9.862;2023-03-16T10:42:48;102002.41;;;7.15;46.47
23241;BME280;11789;53.482;9.862;2023-03-16T10:45:28;101991.53;;;7.23;45.77
23241;BME280;11789;53.482;9.862;2023-03-16T10:48:12;101987.31;;;7.25;44.31
23241;BME280;11789;53.482;9.862;2023-03-16T10:50:40;101981.97;;;7.19;44.95
23241;BME280;11789;53.482;9.862;2023-03-16T10:53:22;101976.22;;;7.28;44.66
23241;BME280;11789;53.482;9.862;2023-03-16T10:55:55;101976.41;;;7.34;45.55
23241;BME280;11789;53.482;9.862;2023-03-16T10:58:25;101986.06;;;7.41;43.85
23241;BME280;11789;53.482;9.862;2023-03-16T11:00:51;101983.91;;;7.26;43.78
23241;BME280;11789;53.482;9.862;2023-03-16T11:03:26;101985.66;;;7.27;44.08
23241;BME280;11789;53.482;9.862;2023-03-16T11:06:18;101972.06;;;7.32;45.08
23241;BME280;11789;53.482;9.862;2023-03-16T11:08:44;101969.44;;;7.30;44.80
23241;BME280;11789;53.482;9.862;2023-03-16T11:11:30;101962.63;;;7.32;44.38
23241;BME280;11789;53.482;9.862;2023-03-16T11:13:59;101957.81;;;7.43;43.78
23241;BME280;11789;53.482;9.862;2023-03-16T11:16:53;101954.47;;;7.45;42.81
23241;BME280;11789;53.482;9.862;2023-03-16T11:22:12;101942.63;;;7.50;42.72
23241;BME280;11789;53.482;9.862;2023-03-16T11:32:31;101958.72;;;7.75;43.05
23241;BME280;11789;53.482;9.862;2023-03-16T11:34:58;101936.28;;;7.69;42.23
23241;BME280;11789;53.482;9.862;2023-03-16T11:38:26;101924.19;;;7.67;42.37
23241;BME280;11789;53.482;9.862;2023-03-16T11:40:40;101926.28;;;7.80;42.61
23241;BME280;11789;53.482;9.862;2023-03-16T11:49:04;101926.53;;;7.89;39.55
23241;BME280;11789;53.482;9.862;2023-03-16T12:05:42;101886.84;;;8.14;40.47
23241;BME280;11789;53.482;9.862;2023-03-16T12:09:11;101881.78;;;8.17;38.38
23241;BME280;11789;53.482;9.862;2023-03-16T12:11:43;101898.84;;;8.14;37.00
23241;BME280;11789;53.482;9.862;2023-03-16T12:14:22;101881.44;;;8.05;35.80
23241;BME280;11789;53.482;9.862;2023-03-16T12:16:58;101892.56;;;8.02;35.27
23241;BME280;11789;53.482;9.862;2023-03-16T12:19:40;101901.84;;;7.96;36.08
23241;BME280;11789;53.482;9.862;2023-03-16T12:22:13;101882.09;;;7.96;36.21
23241;BME280;11789;53.482;9.862;2023-03-16T12:24:42;101887.56;;;8.09;36.99
23241;BME280;11789;53.482;9.862;2023-03-16T12:27:14;101873.94;;;8.13;37.56
23241;BME280;11789;53.482;9.862;2023-03-16T12:38:03;101858.72;;;8.22;36.24
23241;BME280;11789;53.482;9.862;2023-03-16T12:48:26;101865.13;;;8.04;34.82
23241;BME280;11789;53.482;9.862;2023-03-16T12:50:57;101839.38;;;8.04;35.88
23241;BME280;11789;53.482;9.862;2023-03-16T12:53:38;101826.50;;;8.04;36.26
23241;BME280;11789;53.482;9.862;2023-03-16T12:56:06;101829.94;;;8.05;36.21
23241;BME280;11789;53.482;9.862;2023-03-16T12:58:34;101813.72;;;8.07;36.60
23241;BME280;11789;53.482;9.862;2023-03-16T13:01:01;101814.72;;;8.14;37.53
23241;BME280;11789;53.482;9.862;2023-03-16T13:03:27;101824.28;;;8.18;37.62
23241;BME280;11789;53.482;9.862;2023-03-16T13:05:58;101802.06;;;8.23;36.64
23241;BME280;11789;53.482;9.862;2023-03-16T13:08:25;101807.19;;;8.22;35.80
23241;BME280;11789;53.482;9.862;2023-03-16T13:11:08;101799.28;;;8.14;34.61
23241;BME280;11789;53.482;9.862;2023-03-16T13:13:46;101791.28;;;8.03;33.82
23241;BME280;11789;53.482;9.862;2023-03-16T13:16:28;101792.84;;;7.97;35.70
23241;BME280;11789;53.482;9.862;2023-03-16T13:18:55;101792.09;;;8.01;36.62
23241;BME280;11789;53.482;9.862;2023-03-16T13:21:37;101790.44;;;8.04;36.32
23241;BME280;11789;53.482;9.862;2023-03-16T13:24:25;101785.28;;;8.03;35.66
23241;BME280;11789;53.482;9.862;2023-03-16T13:26:57;101783.56;;;8.03;36.09
23241;BME280;11789;53.482;9.862;2023-03-16T13:29:27;101771.56;;;8.04;36.97
23241;BME280;11789;53.482;9.862;2023-03-16T13:31:58;101781.84;;;8.04;37.37
23241;BME280;11789;53.482;9.862;2023-03-16T13:34:46;101782.59;;;8.00;36.76
23241;BME280;11789;53.482;9.862;2023-03-16T13:37:17;101780.84;;;7.97;36.88
23241;BME280;11789;53.482;9.862;2023-03-16T13:39:58;101765.28;;;7.93;37.09
23241;BME280;11789;53.482;9.862;2023-03-16T13:42:27;101776.41;;;7.92;37.18
23241;BME280;11789;53.482;9.862;2023-03-16T13:44:58;101768.63;;;7.90;37.84
23241;BME280;11789;53.482;9.862;2023-03-16T13:47:28;101768.63;;;7.90;37.67
23241;BME280;11789;53.482;9.862;2023-03-16T13:49:58;101766.03;;;7.89;37.65
23241;BME280;11789;53.482;9.862;2023-03-16T13:52:28;101766.00;;;7.87;37.56
23241;BME280;11789;53.482;9.862;2023-03-16T13:54:55;101762.44;;;7.82;37.99
23241;BME280;11789;53.482;9.862;2023-03-16T13:57:24;101758.06;;;7.79;36.81
23241;BME280;11789;53.482;9.862;2023-03-16T13:59:59;101761.47;;;7.77;37.94